Logo AVAMET
Benvolgut visitant, si us plau, ingressa Recuperar contrasenya

Xacarella El Copo

Dades diàries. Acumulats / Últims 30 dies disponibles

Data Temperatura (°C) Humitat rel. (%) Pressió rel. (hPa) Vent (km/h) Precipitació
Mínima Mitjana Màxima Amplitud
tèrmica
Mínima Mitjana Màxima Mínima Mitjana Màxima Predom. Mitjana Ràfega
màxima
Total
(mm)
Índex-n
Mínima Mitjana Màxima Mínima Mitjana Màxima n
0 a 1
P0 max
mm 5'
Dades mensuals acumulades fins l'últim dia disponible
01/2020 4,1 5,9 7,9 10,5 10,1 15,7 20,2 16,1 35 76 97 1.009 1.021 1.030   7,1 61,2 61,8
Dades anuals acumulades fins l'últim dia disponible
2020 4,1 5,9 7,9 10,5 10,1 15,7 20,2 16,1 35 76 97 1.009 1.021 1.030   7,1 61,2 61,8
Últims 30 dies disponibles
24-01-2020 6,7     11,4     15,9 9,2 77 86 94 1.018 1.019 1.021 SSO 4,5 24,1 0,0
23-01-2020 5,7     10,5     15,9 10,2 71 88 95 1.017 1.018 1.020 SSE 4,2 24,1 0,4
22-01-2020 5,7     10,4     15,6 9,9 70 88 97 1.014 1.015 1.017 SSO 4,5 40,2 11,8
21-01-2020 7,9     9,6     11,8 3,9 81 90 94 1.009 1.011 1.015 OSO 9,8 46,7 26,8 0,53 5,30
20-01-2020 6,5     8,4     10,1 3,6 64 82 94 1.012 1.014 1.015 S 12,6 61,2 13,8 0,45 2,30
19-01-2020 7,2     9,8     13,0 5,8 62 76 91 1.012 1.014 1.018 S 14,0 54,7 9,0 0,40 2,00
18-01-2020 7,3     11,2     15,6 8,3 62 74 90 1.018 1.026 1.030 SO 5,6 25,7 0,0
17-01-2020 4,5     12,0     20,2 15,7 38 63 86 1.026 1.027 1.030 SO 6,0 33,8 0,0
16-01-2020 6,7     11,5     18,9 12,2 43 64 84 1.024 1.026 1.027 OSO 7,6 29,0 0,0
15-01-2020 4,1     11,1     17,3 13,2 45 60 82 1.021 1.024 1.026 OSO 5,9 24,1 0,0
14-01-2020 4,7     10,0     16,3 11,6 36 65 89 1.019 1.021 1.022 O 8,5 29,0 0,0
13-01-2020 4,1     8,9     15,2 11,1 54 78 93 1.021 1.024 1.028 O 6,1 20,9 0,0
12-01-2020 4,4     8,9     16,7 12,3 35 74 92 1.026 1.028 1.029 SO 8,1 29,0 0,0
11-01-2020 5,7     11,3     16,3 10,6 46 70 92 1.025 1.027 1.029 SSO 4,3 25,7 0,0
10-01-2020 5,8     11,0     17,1 11,3 47 75 94 1.021 1.023 1.026 SSO 7,1 35,4 0,0
09-01-2020 7,4     12,1     15,8 8,4 59 77 91 1.023 1.024 1.025 SO 4,6 19,3 0,0
30-12-2019 7,4     8,3     10,3 2,9 84 92 95 1.029 1.030 1.032 O 3,1 19,3 0,0
29-12-2019 6,4     10,4     16,0 9,6 67 87 97 1.028 1.030 1.032 SO 4,4 20,9 0,2
28-12-2019 7,3     10,6     15,4 8,1 72 89 97 1.027 1.028 1.030 SO 4,9 20,9 0,4
27-12-2019 6,6     11,2     17,8 11,2 64 84 94 1.026 1.027 1.029 SSO 2,8 12,9 0,0
25-12-2019 8,0     14,2     20,9 12,9 49 69 86 1.021 1.022 1.024 OSO 4,7 17,7 0,0
24-12-2019 9,4     14,8     22,3 12,9 47 67 86 1.023 1.025 1.027 O 9,4 32,2 0,0
23-12-2019 9,6     14,6     22,2 12,6 38 66 83 1.019 1.023 1.026 OSO 5,4 30,6 0,0
22-12-2019 16,4     19,6     22,8 6,4 31 43 53 1.008 1.014 1.019 O 15,2 59,5 0,0
21-12-2019 14,1     19,5     22,9 8,8 39 68 87 1.002 1.004 1.008 OSO 11,6 51,5 0,0
20-12-2019 8,8     16,1     20,2 11,4 72 82 91 1.001 1.004 1.009 SO 15,1 66,0 0,4
19-12-2019 5,8     9,3     13,4 7,6 68 80 90 1.010 1.014 1.017 SO 3,9 27,4 0,0
18-12-2019 8,2     12,9     17,4 9,2 40 62 82 1.012 1.015 1.018 ONO 11,0 33,8 0,0
17-12-2019 9,7     13,4     17,3 7,6 62 79 94 998 1.003 1.011 O 6,5 30,6 0,0
16-12-2019 6,8     12,4     14,1 7,3 80 86 92 1.000 1.003 1.008 ONO 2,8 16,1 0,0
Últims 13 mesos disponibles
12/2019 5,8 9,7 16,4 13,4 10,3 18,0 22,9 17,1 43 74 92 1.003 1.016 1.030 O 8,7 66,0 32,2
11/2019 6,2 11,2 18,9 15,4 15,1 20,0 27,9 21,7 43 59 92 999 1.010 1.017 ONO 11,8 82,1 10,2
10/2019 11,9 17,3 24,1 22,1 22,1 27,3 34,5 22,6 37 70 86 1.008 1.015 1.019 SSW 7,3 41,8 0,2
09/2019 16,0 19,7 22,2 23,7 21,4 28,7 33,9 17,9 45 76 91 1.008 1.014 1.019 SSW 7,5 56,3 189,4
08/2019 19,1 21,5 25,1 26,4 23,8 31,9 40,8 21,7 50 73 93 1.008 1.013 1.017 SSW 7,8 45,1 33,2
07/2019 18,6 21,3 25,3 27,0 29,1 32,7 39,5 20,9 32 64 76 1.004 1.011 1.017 ESE 9,2 54,7 0,0
06/2019 11,9 16,9 21,2 23,1 23,4 28,9 35,1 23,2 40 61 76 1.007 1.013 1.020 SSW 9,3 51,5 1,2
05/2019 10,9 13,9 19,6 19,4 19,8 24,9 31,1 20,2 46 67 79 1.004 1.013 1.023 S 8,8 51,5 1,8
04/2019 6,8 11,1 14,2 15,7 14,1 20,9 28,7 21,9 45 67 92 998 1.011 1.023 WNW 9,5 74,0 111,2
03/2019 3,8 7,5 13,1 13,9 13,7 20,5 28,4 24,6 39 63 90 1.009 1.020 1.028 SSW 7,7 57,9 19,4
02/2019 3,7 6,3 11,6 12,1 13,8 18,8 26,7 23,0 33 63 82 995 1.022 1.030 SSW 8,5 83,7 0,0
01/2019 0,8 6,1 12,2 11,5 12,4 17,1 22,8 22,0 39 57 82 1.002 1.016 1.029 WNW 9,2 66,0 2,6
Tots els anys disponibles
2019 0,8 13,6 25,3 18,8 10,3 24,3 40,8 40,0 32 66 93 995 1.014 1.030 SSW 8,8 83,7 406,0
Temperatura (°C)
Humitat relativa (%)
Velocitat del vent i ràfega màxima (km/h)
Direcció del vent (°)
Pressió (hPa)
Precipitació (mm)
Nota sobre les dades: s'avisa a l'usuari de la provisionalitat i no oficialitat d'aquestes dades
Logo AVAMET blanc
Web allotjada a Sollutia
Llicència de Creative CommonsLa web d'AVAMET i els seus continguts estan subjectes a una llicència de
Reconeixement - No Comercial - Compartir igual
Últimes estacions: Xixona - Els Ameradors (Soci), Agres - El Tossal (Soci), Xàbia - Bevenguts (MeteoXàbia), Llíria (Aj. Soci/Inforatge), Orihuela - Lo Capitán, Cox & Guardamar del Segura - horta (Meteorihuela), l'Alcúdia - Carriona & el Real de Gandia (Inforatge), Benicàssim - les Vil·les (Soci),  l'Alfàs del Pi - l'Albir (Soci), - - -